Time;durP1;ratioP1;P1;durP2;ratioP2;P2;SDS_P1;SDS_P2;PMS_P1;PMS_P2;Temp;Humidity;BMP_temperature;BMP_pressure;BME280_temperature;BME280_humidity;BME280_pressure;Samples;Min_cycle;Max_cycle;Signal;HPM_P1;HPM_P2
2021/06/25 00:00:24;;;;;;;3.65;2.30;;;;;;;14.51;100.00;96258.16;1031303;28;20030;-51
2021/06/25 00:00:55;;;;;;;3.85;2.10;;;;;;;14.47;100.00;96260.22;1031671;28;20026;-53
2021/06/25 00:01:26;;;;;;;3.72;2.40;;;;;;;14.51;100.00;96259.00;1031534;28;20027;-50
2021/06/25 00:01:57;;;;;;;4.13;2.67;;;;;;;14.51;100.00;96253.72;1031708;28;20022;-52
2021/06/25 00:02:28;;;;;;;4.82;2.40;;;;;;;14.51;100.00;96252.91;1035718;28;20018;-53
2021/06/25 00:02:59;;;;;;;5.10;2.80;;;;;;;14.49;100.00;96252.16;1031872;28;20014;-53
2021/06/25 00:03:29;;;;;;;5.88;2.40;;;;;;;14.44;100.00;96251.72;1035283;28;20441;-51
2021/06/25 00:04:01;;;;;;;3.97;2.30;;;;;;;14.44;100.00;96249.06;1031044;28;20026;-53
2021/06/25 00:04:32;;;;;;;3.83;2.53;;;;;;;14.44;100.00;96249.91;1028013;28;20057;-52
2021/06/25 00:05:04;;;;;;;4.30;2.30;;;;;;;14.42;100.00;96257.09;1031563;28;20019;-53
2021/06/25 00:05:36;;;;;;;3.42;2.40;;;;;;;14.39;100.00;96254.72;1031577;28;20078;-53
2021/06/25 00:06:07;;;;;;;3.53;2.25;;;;;;;14.41;100.00;96250.16;1031916;28;20038;-52
2021/06/25 00:06:38;;;;;;;4.78;2.75;;;;;;;14.39;100.00;96252.06;1031977;28;20032;-52
2021/06/25 00:07:09;;;;;;;3.83;2.53;;;;;;;14.41;100.00;96252.78;1031864;28;20037;-53
2021/06/25 00:07:40;;;;;;;3.47;2.40;;;;;;;14.41;100.00;96252.78;1031876;28;20022;-52
2021/06/25 00:08:12;;;;;;;4.45;2.17;;;;;;;14.39;100.00;96257.34;1039733;28;20033;-52
2021/06/25 00:08:43;;;;;;;4.28;2.40;;;;;;;14.41;100.00;96257.22;1039792;28;20025;-52
2021/06/25 00:09:13;;;;;;;6.07;2.40;;;;;;;14.40;100.00;96251.13;1035770;28;20092;-52
2021/06/25 00:09:44;;;;;;;4.95;2.60;;;;;;;14.41;100.00;96249.31;1035218;28;20642;-52
2021/06/25 00:10:16;;;;;;;4.85;2.55;;;;;;;14.40;100.00;96256.41;1031496;28;20026;-53
2021/06/25 00:10:48;;;;;;;4.38;2.40;;;;;;;14.39;100.00;96252.91;1031616;28;20050;-53
2021/06/25 00:11:19;;;;;;;3.65;2.40;;;;;;;14.38;100.00;96253.88;1032015;28;20473;-52
2021/06/25 00:11:50;;;;;;;4.30;2.30;;;;;;;14.37;100.00;96252.19;1031883;28;20026;-52
2021/06/25 00:12:25;;;;;;;3.75;2.50;;;;;;;14.40;100.00;96253.75;1031785;28;20444;-53
2021/06/25 00:12:56;;;;;;;3.95;2.80;;;;;;;14.38;100.00;96253.88;1032053;28;20029;-53
2021/06/25 00:13:27;;;;;;;7.53;2.40;;;;;;;14.38;100.00;96259.16;1031553;28;20064;-52
2021/06/25 00:13:58;;;;;;;3.83;2.70;;;;;;;14.35;100.00;96253.28;1031584;28;20030;-52
2021/06/25 00:14:29;;;;;;;5.50;2.60;;;;;;;14.35;100.00;96259.38;1031493;28;20019;-53
2021/06/25 00:15:01;;;;;;;4.07;2.20;;;;;;;14.36;100.00;96257.59;1031688;28;20128;-51
2021/06/25 00:15:32;;;;;;;4.40;2.60;;;;;;;14.33;100.00;96261.31;1027547;28;20497;-53
2021/06/25 00:16:03;;;;;;;5.45;2.38;;;;;;;14.35;100.00;96258.56;1027989;28;20015;-53
2021/06/25 00:16:34;;;;;;;3.72;2.30;;;;;;;14.37;100.00;96257.47;1031607;28;20050;-53
2021/06/25 00:17:05;;;;;;;4.63;2.25;;;;;;;14.33;100.00;96261.31;1031630;28;20021;-53
2021/06/25 00:17:36;;;;;;;3.65;2.47;;;;;;;14.33;100.00;96258.69;1031867;28;20388;-53
2021/06/25 00:18:08;;;;;;;5.18;2.40;;;;;;;14.31;100.00;96265.03;1031978;28;20018;-53
2021/06/25 00:18:39;;;;;;;3.80;2.45;;;;;;;14.31;100.00;96265.03;1031819;28;20389;-53
2021/06/25 00:19:10;;;;;;;3.58;2.92;;;;;;;14.32;100.00;96262.28;1031931;28;20093;-52
2021/06/25 00:19:41;;;;;;;4.38;2.60;;;;;;;14.33;100.00;96266.59;1031784;28;20100;-52
2021/06/25 00:20:14;;;;;;;3.90;2.55;;;;;;;14.33;100.00;96261.31;1031698;28;20558;-52
2021/06/25 00:20:45;;;;;;;5.88;2.40;;;;;;;14.32;100.00;96262.28;1031552;28;20026;-52
2021/06/25 00:21:16;;;;;;;4.50;2.13;;;;;;;14.35;100.00;96259.38;1031593;28;20034;-52
2021/06/25 00:21:49;;;;;;;3.40;2.38;;;;;;;14.35;100.00;96263.84;1031495;28;20022;-53
2021/06/25 00:22:20;;;;;;;3.63;2.00;;;;;;;14.31;100.00;96257.13;1027949;28;20022;-52
2021/06/25 00:22:50;;;;;;;5.50;1.70;;;;;;;14.28;100.00;96257.38;1027554;28;20493;-52
2021/06/25 00:23:21;;;;;;;3.45;2.28;;;;;;;14.23;100.00;96256.91;1023641;29;20069;-52
2021/06/25 00:23:52;;;;;;;3.83;1.75;;;;;;;14.20;100.00;96250.91;1023379;28;20029;-52
2021/06/25 00:24:23;;;;;;;5.13;2.10;;;;;;;14.18;100.00;96258.09;1023746;28;20099;-52
2021/06/25 00:24:54;;;;;;;3.17;1.92;;;;;;;14.19;100.00;96251.88;1027822;28;20532;-53
2021/06/25 00:25:25;;;;;;;3.38;1.88;;;;;;;14.20;100.00;96248.28;1031539;28;20022;-48
2021/06/25 00:25:56;;;;;;;4.65;1.90;;;;;;;14.18;100.00;96254.63;1031481;28;20404;-52
2021/06/25 00:26:27;;;;;;;3.47;1.80;;;;;;;14.17;100.00;96256.44;1027689;28;20019;-51
2021/06/25 00:26:57;;;;;;;3.78;1.90;;;;;;;14.15;100.00;96247.81;1027413;28;20022;-52
2021/06/25 00:27:28;;;;;;;4.07;1.90;;;;;;;14.11;100.00;96249.00;1027575;28;20011;-52
2021/06/25 00:27:59;;;;;;;3.78;1.75;;;;;;;14.11;100.00;96256.91;1027787;28;20031;-52
2021/06/25 00:28:30;;;;;;;3.00;1.80;;;;;;;14.11;100.00;96256.09;1031696;28;20018;-53
2021/06/25 00:29:01;;;;;;;3.45;1.80;;;;;;;14.11;100.00;96256.09;1031856;28;20081;-51
2021/06/25 00:29:32;;;;;;;3.58;1.80;;;;;;;14.10;100.00;96255.25;1031953;28;20412;-53
2021/06/25 00:30:06;;;;;;;4.88;1.85;;;;;;;14.10;100.00;96247.34;1031905;28;20053;-52
2021/06/25 00:30:37;;;;;;;3.92;2.03;;;;;;;14.12;100.00;96252.50;1031955;28;20045;-52
2021/06/25 00:31:08;;;;;;;4.55;1.70;;;;;;;14.10;100.00;96251.78;1031848;28;20027;-53
2021/06/25 00:31:39;;;;;;;5.47;2.10;;;;;;;14.09;100.00;96256.19;1031681;28;20105;-53
2021/06/25 00:32:10;;;;;;;3.17;1.73;;;;;;;14.08;100.00;96256.34;1031620;28;20022;-53
2021/06/25 00:32:41;;;;;;;3.42;2.00;;;;;;;14.08;100.00;96257.19;1027490;28;20031;-52
2021/06/25 00:33:12;;;;;;;3.90;1.75;;;;;;;14.08;100.00;96257.19;1027679;28;20548;-53
2021/06/25 00:33:43;;;;;;;3.70;1.92;;;;;;;14.07;100.00;96255.50;1034902;28;20109;-53
2021/06/25 00:34:14;;;;;;;3.30;1.70;;;;;;;14.06;100.00;96250.34;1031951;28;20019;-54
2021/06/25 00:34:45;;;;;;;4.88;2.35;;;;;;;14.06;100.00;96253.81;1035673;28;20443;-53
2021/06/25 00:35:16;;;;;;;3.35;1.80;;;;;;;14.07;100.00;96247.59;1027145;28;20046;-52
2021/06/25 00:35:47;;;;;;;5.15;2.00;;;;;;;14.05;100.00;96252.13;1023626;28;20046;-52
2021/06/25 00:36:18;;;;;;;4.75;2.13;;;;;;;14.05;100.00;96248.69;1023671;29;20019;-53
2021/06/25 00:36:48;;;;;;;3.38;1.85;;;;;;;14.05;100.00;96251.31;1024067;28;20031;-52
2021/06/25 00:37:19;;;;;;;4.13;1.80;;;;;;;14.05;100.00;96254.78;1023486;29;20029;-53
2021/06/25 00:37:50;;;;;;;3.42;1.77;;;;;;;14.03;100.00;96256.69;1023453;29;20111;-51
2021/06/25 00:38:21;;;;;;;3.03;1.85;;;;;;;14.02;100.00;96260.31;1019899;29;20585;-53
2021/06/25 00:38:52;;;;;;;3.80;2.30;;;;;;;14.04;100.00;96257.53;1024060;28;20035;-52
2021/06/25 00:39:23;;;;;;;4.18;2.10;;;;;;;13.99;100.00;96258.72;1027522;28;20022;-49
2021/06/25 00:39:54;;;;;;;4.63;1.90;;;;;;;13.99;100.00;96253.47;1027825;28;20126;-53
2021/06/25 00:40:25;;;;;;;2.90;1.80;;;;;;;13.99;100.00;96257.91;1027606;28;20089;-52
2021/06/25 00:40:55;;;;;;;3.50;1.90;;;;;;;14.00;100.00;96255.16;1023673;29;20077;-52
2021/06/25 00:41:26;;;;;;;3.92;2.15;;;;;;;14.04;100.00;96252.25;1023507;28;20493;-49
2021/06/25 00:41:57;;;;;;;3.67;2.08;;;;;;;14.02;100.00;96257.69;1019703;29;20106;-52
2021/06/25 00:42:28;;;;;;;4.18;1.98;;;;;;;13.99;100.00;96258.72;1023798;28;20015;-52
2021/06/25 00:42:59;;;;;;;2.95;1.70;;;;;;;13.98;100.00;96261.47;1027602;28;20106;-52
2021/06/25 00:43:30;;;;;;;2.92;1.90;;;;;;;13.97;100.00;96255.38;1027377;28;20026;-52
2021/06/25 00:44:00;;;;;;;3.42;1.90;;;;;;;13.96;100.00;96258.13;1031640;28;20448;-52
2021/06/25 00:44:31;;;;;;;6.60;2.38;;;;;;;13.98;100.00;96253.56;1031558;28;20033;-52
2021/06/25 00:45:21;;;;;;;4.30;2.10;;;;;;;13.99;100.00;96247.38;1031618;28;20033;-52
2021/06/25 00:45:52;;;;;;;3.85;1.90;;;;;;;13.99;100.00;96256.09;1031568;28;20041;-52
2021/06/25 00:46:23;;;;;;;3.00;1.80;;;;;;;13.96;100.00;96256.34;1031830;28;20554;-52
2021/06/25 00:46:54;;;;;;;2.70;1.70;;;;;;;13.93;100.00;96253.13;1031819;28;20433;-52
2021/06/25 00:47:25;;;;;;;2.88;1.70;;;;;;;13.94;100.00;96250.34;1031839;28;20431;-49
2021/06/25 00:47:55;;;;;;;6.95;2.63;;;;;;;13.90;100.00;96253.34;1032624;28;20153;-52
2021/06/25 00:48:26;;;;;;;6.15;2.15;;;;;;;13.87;100.00;96249.19;1032828;28;20024;-53
2021/06/25 00:48:57;;;;;;;3.25;1.80;;;;;;;13.85;100.00;96261.63;1032407;28;20046;-52
2021/06/25 00:49:28;;;;;;;3.17;1.60;;;;;;;13.87;100.00;96250.97;1032264;28;20373;-51
2021/06/25 00:49:59;;;;;;;2.70;1.70;;;;;;;13.85;100.00;96250.25;1028347;28;20047;-52
2021/06/25 00:50:34;;;;;;;3.67;1.77;;;;;;;13.83;100.00;96250.34;1024448;29;20513;-51
2021/06/25 00:51:05;;;;;;;6.07;1.88;;;;;;;13.84;100.00;96252.03;1024492;29;20026;-53
2021/06/25 00:51:36;;;;;;;4.20;1.70;;;;;;;13.80;100.00;96248.81;1025919;28;20110;-52
2021/06/25 00:52:07;;;;;;;5.28;1.80;;;;;;;13.81;100.00;96252.28;1033260;28;20019;-52
2021/06/25 00:52:38;;;;;;;3.38;1.73;;;;;;;13.80;100.00;96254.09;1032284;28;20129;-52
2021/06/25 00:53:09;;;;;;;4.95;1.95;;;;;;;13.78;100.00;96249.91;1032369;28;20484;-51
2021/06/25 00:53:43;;;;;;;4.40;1.80;;;;;;;13.79;100.00;96257.69;1027676;28;20110;-52
2021/06/25 00:54:14;;;;;;;2.70;1.48;;;;;;;13.76;100.00;96247.38;1028951;28;20027;-52
2021/06/25 00:54:45;;;;;;;4.25;1.80;;;;;;;13.76;100.00;96244.75;1032424;28;20022;-52
2021/06/25 00:55:16;;;;;;;4.90;1.80;;;;;;;13.78;100.00;96244.63;1032550;28;20416;-52
2021/06/25 00:55:46;;;;;;;4.38;1.90;;;;;;;13.78;100.00;96247.28;1032547;28;20392;-52
2021/06/25 00:56:17;;;;;;;3.72;1.38;;;;;;;13.78;100.00;96250.72;1032286;28;20097;-52
2021/06/25 00:56:48;;;;;;;3.85;1.55;;;;;;;13.77;100.00;96251.69;1032435;28;20026;-52
2021/06/25 00:57:19;;;;;;;2.80;1.80;;;;;;;13.76;100.00;96250.03;1036445;28;20025;-53
2021/06/25 00:57:50;;;;;;;3.50;1.60;;;;;;;13.75;100.00;96244.88;1036496;28;20084;-51
2021/06/25 00:58:21;;;;;;;3.15;1.73;;;;;;;13.74;100.00;96246.66;1036367;28;20026;-53
2021/06/25 00:58:52;;;;;;;3.30;1.50;;;;;;;13.70;100.00;96242.59;1036164;28;20022;-51
2021/06/25 00:59:23;;;;;;;4.25;1.88;;;;;;;13.70;100.00;96247.00;1032282;28;20022;-50
2021/06/25 00:59:54;;;;;;;2.80;1.50;;;;;;;13.70;100.00;96249.66;1032462;28;20026;-51
2021/06/25 01:00:24;;;;;;;4.07;1.63;;;;;;;13.69;100.00;96245.34;1035791;28;20021;-51
2021/06/25 01:00:55;;;;;;;4.22;1.60;;;;;;;13.67;100.00;96252.53;1032798;28;20034;-52
2021/06/25 01:01:26;;;;;;;3.10;1.83;;;;;;;13.69;100.00;96245.34;1032705;28;20352;-48
2021/06/25 01:01:57;;;;;;;2.83;1.55;;;;;;;13.61;100.00;96240.69;1032117;28;20084;-52
2021/06/25 01:02:27;;;;;;;2.38;1.45;;;;;;;13.61;100.00;96248.59;1032212;28;20018;-52
2021/06/25 01:03:00;;;;;;;2.60;1.70;;;;;;;13.61;100.00;96245.94;1032467;28;20030;-52
2021/06/25 01:03:32;;;;;;;2.92;1.40;;;;;;;13.59;100.00;96243.44;1020239;29;20038;-53
2021/06/25 01:04:03;;;;;;;2.63;1.63;;;;;;;13.61;100.00;96243.31;1024041;29;20509;-52
2021/06/25 01:04:35;;;;;;;4.15;1.50;;;;;;;13.62;100.00;96244.97;1020446;29;20371;-52
2021/06/25 01:05:07;;;;;;;4.72;1.80;;;;;;;13.61;100.00;96246.78;1022264;28;20043;-52
2021/06/25 01:05:38;;;;;;;3.60;1.90;;;;;;;13.59;100.00;96245.25;1032409;28;20026;-51
2021/06/25 01:06:09;;;;;;;4.22;1.92;;;;;;;13.58;100.00;96244.38;1032140;28;20060;-52
2021/06/25 01:06:40;;;;;;;2.80;1.75;;;;;;;13.61;100.00;96252.06;1032413;28;20455;-52
2021/06/25 01:07:11;;;;;;;3.45;1.60;;;;;;;13.59;100.00;96251.34;1032339;28;20026;-52
2021/06/25 01:07:43;;;;;;;2.50;1.30;;;;;;;13.55;100.00;96252.53;1032363;28;20010;-52
2021/06/25 01:08:13;;;;;;;4.55;1.65;;;;;;;13.52;100.00;96247.50;1024386;28;20146;-52
2021/06/25 01:08:44;;;;;;;3.28;1.90;;;;;;;13.54;100.00;96247.38;1028330;28;20425;-51
2021/06/25 01:09:17;;;;;;;2.85;1.60;;;;;;;13.53;100.00;96246.56;1024197;29;20102;-53
2021/06/25 01:09:48;;;;;;;2.50;1.50;;;;;;;13.53;100.00;96246.56;1025149;28;20011;-52
2021/06/25 01:10:19;;;;;;;2.97;1.80;;;;;;;13.53;100.00;96254.44;1028219;28;20102;-52
2021/06/25 01:10:49;;;;;;;5.07;1.67;;;;;;;13.55;100.00;96249.03;1020874;29;20018;-53
2021/06/25 01:11:20;;;;;;;3.50;1.63;;;;;;;13.51;100.00;96239.72;1028215;28;20388;-52
2021/06/25 01:11:51;;;;;;;2.95;1.73;;;;;;;13.51;100.00;96248.44;1024449;28;20039;-51
2021/06/25 01:12:22;;;;;;;2.95;1.40;;;;;;;13.53;100.00;96245.69;1024314;28;20035;-50
2021/06/25 01:12:53;;;;;;;2.75;1.48;;;;;;;13.53;100.00;96257.09;1024234;28;20449;-52
2021/06/25 01:13:25;;;;;;;3.83;1.95;;;;;;;13.48;100.00;96242.59;1024320;28;20011;-52
2021/06/25 01:13:55;;;;;;;3.22;1.60;;;;;;;13.52;100.00;96255.41;1027772;28;20014;-52
2021/06/25 01:14:26;;;;;;;4.40;1.98;;;;;;;13.50;100.00;96249.41;1028571;28;20525;-52
2021/06/25 01:14:57;;;;;;;4.88;1.73;;;;;;;13.54;100.00;96250.00;1028228;28;20110;-51
2021/06/25 01:15:28;;;;;;;4.35;1.60;;;;;;;13.54;100.00;96253.47;1028318;28;20011;-53
2021/06/25 01:15:59;;;;;;;4.90;1.92;;;;;;;13.57;100.00;96249.75;1032151;28;20018;-52
2021/06/25 01:16:30;;;;;;;2.83;1.60;;;;;;;13.57;100.00;96255.88;1032810;28;20384;-52
2021/06/25 01:17:02;;;;;;;5.82;1.92;;;;;;;13.57;100.00;96247.97;1040312;28;20076;-53
2021/06/25 01:17:35;;;;;;;2.80;1.67;;;;;;;13.60;100.00;96249.53;1035841;28;20014;-53
2021/06/25 01:18:06;;;;;;;4.03;1.50;;;;;;;13.62;100.00;96252.88;1032192;28;20018;-53
2021/06/25 01:18:37;;;;;;;3.38;1.58;;;;;;;13.65;100.00;96259.72;1032320;28;20403;-52
2021/06/25 01:19:26;;;;;;;3.58;1.70;;;;;;;13.67;100.00;96252.53;1032421;28;20014;-50
2021/06/25 01:19:58;;;;;;;3.35;1.73;;;;;;;13.61;100.00;96259.94;1032486;28;20038;-52
2021/06/25 01:20:30;;;;;;;3.78;1.70;;;;;;;13.63;100.00;96257.19;1032696;28;20058;-51
2021/06/25 01:21:01;;;;;;;4.70;1.70;;;;;;;13.58;100.00;96251.44;1032194;28;20349;-52
2021/06/25 01:21:32;;;;;;;2.92;1.70;;;;;;;13.57;100.00;96252.38;1032338;28;20093;-53
2021/06/25 01:22:03;;;;;;;3.25;1.60;;;;;;;13.55;100.00;96256.94;1024163;29;20518;-52
2021/06/25 01:22:40;;;;;;;5.28;1.83;;;;;;;13.58;100.00;96260.19;1028552;28;20089;-51
2021/06/25 01:23:11;;;;;;;4.43;1.80;;;;;;;13.59;100.00;96250.50;1032171;28;20624;-51
2021/06/25 01:23:43;;;;;;;3.22;1.48;;;;;;;13.56;100.00;96254.19;1028850;28;20045;-52
2021/06/25 01:24:14;;;;;;;4.32;1.70;;;;;;;13.54;100.00;96252.66;1032234;28;20084;-52
2021/06/25 01:24:44;;;;;;;2.63;1.75;;;;;;;13.54;100.00;96253.47;1036375;28;20357;-52
2021/06/25 01:25:16;;;;;;;3.55;1.67;;;;;;;13.58;100.00;96254.06;1032094;28;20154;-52
2021/06/25 01:25:47;;;;;;;3.22;1.75;;;;;;;13.58;100.00;96259.34;1032272;28;20045;-51
2021/06/25 01:26:18;;;;;;;2.60;1.60;;;;;;;13.57;100.00;96255.88;1031874;28;20540;-51
2021/06/25 01:26:49;;;;;;;2.70;1.90;;;;;;;13.59;100.00;96258.41;1028553;28;20026;-52
2021/06/25 01:27:20;;;;;;;3.00;1.70;;;;;;;13.59;100.00;96253.97;1032224;28;20037;-52
2021/06/25 01:27:52;;;;;;;3.13;1.67;;;;;;;13.63;100.00;96253.72;1028598;28;20078;-52
2021/06/25 01:28:23;;;;;;;3.35;1.67;;;;;;;13.63;100.00;96253.72;1032202;28;20384;-52
2021/06/25 01:28:54;;;;;;;4.93;1.83;;;;;;;13.61;100.00;96248.59;1036214;28;20029;-52
2021/06/25 01:29:24;;;;;;;7.22;2.33;;;;;;;13.63;100.00;96254.56;1036657;28;20124;-51
2021/06/25 01:29:57;;;;;;;4.22;1.67;;;;;;;13.66;100.00;96259.56;1036243;28;20069;-52
2021/06/25 01:30:47;;;;;;;3.35;1.60;;;;;;;13.65;100.00;96252.66;1035830;28;20060;-51
2021/06/25 01:31:18;;;;;;;3.97;2.30;;;;;;;13.62;100.00;96252.88;1032143;28;20061;-52
2021/06/25 01:31:49;;;;;;;3.10;1.60;;;;;;;13.60;100.00;96262.69;1032453;28;20030;-51
2021/06/25 01:32:20;;;;;;;3.20;1.85;;;;;;;13.59;100.00;96261.88;1028066;28;20102;-51
2021/06/25 01:32:50;;;;;;;4.10;1.95;;;;;;;13.55;100.00;96255.16;1024234;29;20102;-51
2021/06/25 01:33:21;;;;;;;3.10;2.10;;;;;;;13.59;100.00;96251.34;1020048;29;20474;-52
2021/06/25 01:33:52;;;;;;;4.18;1.90;;;;;;;13.55;100.00;96249.91;1020143;28;20098;-50
2021/06/25 01:34:23;;;;;;;3.88;1.88;;;;;;;13.59;100.00;96258.41;1028308;28;20027;-52
2021/06/25 01:34:54;;;;;;;3.92;2.10;;;;;;;13.57;100.00;96255.88;1032195;28;20037;-52
2021/06/25 01:35:25;;;;;;;4.18;2.03;;;;;;;13.62;100.00;96255.50;1032456;28;20018;-49
2021/06/25 01:35:56;;;;;;;3.00;1.90;;;;;;;13.61;100.00;96253.84;1032135;28;20022;-51
2021/06/25 01:36:27;;;;;;;4.45;2.00;;;;;;;13.59;100.00;96250.50;1032144;28;20033;-51
2021/06/25 01:36:58;;;;;;;3.92;2.00;;;;;;;13.59;100.00;96255.78;1036075;28;20037;-51
2021/06/25 01:37:29;;;;;;;3.75;1.70;;;;;;;13.58;100.00;96256.72;1032017;28;20034;-53
2021/06/25 01:38:00;;;;;;;3.97;1.98;;;;;;;13.60;100.00;96258.25;1028123;28;20070;-50
2021/06/25 01:38:31;;;;;;;3.55;1.90;;;;;;;13.59;100.00;96250.50;1024125;29;20030;-52
2021/06/25 01:39:02;;;;;;;4.05;2.20;;;;;;;13.59;100.00;96253.97;1024606;28;20164;-51
2021/06/25 01:39:33;;;;;;;5.07;1.98;;;;;;;13.58;100.00;96254.91;1028421;28;20153;-52
2021/06/25 01:40:05;;;;;;;2.88;1.80;;;;;;;13.60;100.00;96252.16;1036456;28;20022;-52
2021/06/25 01:40:37;;;;;;;5.10;2.00;;;;;;;13.58;100.00;96256.72;1036140;28;20558;-52
2021/06/25 01:41:08;;;;;;;4.32;2.10;;;;;;;13.57;100.00;96253.25;1036287;28;20513;-52
2021/06/25 01:41:39;;;;;;;4.50;2.00;;;;;;;13.60;100.00;96254.78;1035455;28;20029;-51
2021/06/25 01:42:10;;;;;;;4.25;2.20;;;;;;;13.62;100.00;96255.50;1032219;28;20030;-52
2021/06/25 01:42:41;;;;;;;3.42;2.08;;;;;;;13.59;100.00;96251.34;1032013;28;20026;-52
2021/06/25 01:43:13;;;;;;;3.53;2.22;;;;;;;13.58;100.00;96254.06;1032169;28;20026;-53
2021/06/25 01:43:44;;;;;;;4.53;1.85;;;;;;;13.58;100.00;96246.19;1031449;28;20026;-52
2021/06/25 01:44:16;;;;;;;2.90;1.88;;;;;;;13.59;100.00;96247.88;1032170;28;20018;-52
2021/06/25 01:44:47;;;;;;;4.30;2.13;;;;;;;13.59;100.00;96246.06;1032175;28;20026;-51
2021/06/25 01:45:22;;;;;;;5.03;2.10;;;;;;;13.59;100.00;96251.34;1032082;28;20450;-53
2021/06/25 01:45:53;;;;;;;4.25;2.00;;;;;;;13.58;100.00;96244.38;1032153;28;20439;-52
2021/06/25 01:46:24;;;;;;;4.05;2.20;;;;;;;13.61;100.00;96245.94;1032131;28;20337;-52
2021/06/25 01:46:55;;;;;;;3.35;1.83;;;;;;;13.61;100.00;96251.22;1028150;28;20058;-52
2021/06/25 01:47:25;;;;;;;4.40;2.58;;;;;;;13.60;100.00;96249.53;1024162;29;20034;-48
2021/06/25 01:47:56;;;;;;;8.93;2.53;;;;;;;13.60;100.00;96249.53;1024131;29;20111;-52
2021/06/25 01:48:28;;;;;;;4.32;2.33;;;;;;;13.58;100.00;96249.66;1028185;28;20066;-53
2021/06/25 01:48:59;;;;;;;4.25;2.10;;;;;;;13.55;100.00;96246.41;1032281;28;20105;-52
2021/06/25 01:49:30;;;;;;;3.72;1.83;;;;;;;13.51;100.00;96255.50;1028021;28;20018;-52
2021/06/25 01:50:06;;;;;;;3.50;1.95;;;;;;;13.55;100.00;96244.63;1028371;28;20519;-51
2021/06/25 01:50:39;;;;;;;4.38;2.10;;;;;;;13.51;100.00;96244.97;1032112;28;20058;-53
2021/06/25 01:51:11;;;;;;;6.63;3.13;;;;;;;13.56;100.00;96246.28;1033535;28;20040;-52
2021/06/25 01:51:47;;;;;;;3.55;2.30;;;;;;;13.53;100.00;96243.91;1034969;28;20097;-52
2021/06/25 01:52:18;;;;;;;3.63;2.03;;;;;;;13.53;100.00;96250.97;1032301;28;20018;-53
2021/06/25 01:52:51;;;;;;;4.85;2.20;;;;;;;13.47;100.00;96239.09;1032462;28;20050;-53
2021/06/25 01:53:22;;;;;;;2.95;2.03;;;;;;;13.55;100.00;96246.41;1032415;28;20045;-51
2021/06/25 01:53:52;;;;;;;3.72;2.05;;;;;;;13.53;100.00;96254.44;1031816;28;20149;-52
2021/06/25 01:54:23;;;;;;;3.10;2.03;;;;;;;13.56;100.00;96248.94;1031984;28;20630;-53
2021/06/25 01:54:54;;;;;;;4.78;2.15;;;;;;;13.58;100.00;96254.91;1032187;28;20109;-52
2021/06/25 01:55:26;;;;;;;4.03;2.10;;;;;;;13.56;100.00;96254.19;1036163;28;20037;-49
2021/06/25 01:56:00;;;;;;;3.88;2.08;;;;;;;13.56;100.00;96254.19;1036618;28;20026;-56
2021/06/25 01:56:32;;;;;;;5.82;2.40;;;;;;;13.55;100.00;96251.66;1040108;28;20022;-52
2021/06/25 01:57:03;;;;;;;4.70;1.98;;;;;;;13.50;100.00;96249.41;1039333;28;20542;-52
2021/06/25 01:57:33;;;;;;;5.35;2.15;;;;;;;13.52;100.00;96242.22;1036155;28;20067;-53
2021/06/25 01:58:23;;;;;;;5.30;2.28;;;;;;;13.58;100.00;96251.44;1032153;28;20105;-52
2021/06/25 01:58:54;;;;;;;5.45;2.25;;;;;;;13.57;100.00;96257.66;1032072;28;20365;-52
2021/06/25 01:59:25;;;;;;;3.58;2.00;;;;;;;13.55;100.00;96249.03;1023460;29;20030;-49
2021/06/25 01:59:55;;;;;;;4.10;1.77;;;;;;;13.54;100.00;96242.13;1022814;29;20019;-54
2021/06/25 02:00:26;;;;;;;5.53;2.30;;;;;;;13.59;100.00;96248.69;1015798;29;20030;-51
2021/06/25 02:01:17;;;;;;;4.78;2.45;;;;;;;13.57;100.00;96253.25;1020397;28;20083;-52
2021/06/25 02:01:48;;;;;;;5.57;1.98;;;;;;;13.58;100.00;96249.66;1030916;28;20189;-52
2021/06/25 02:02:18;;;;;;;3.85;2.00;;;;;;;13.55;100.00;96243.78;1034866;28;20034;-52
2021/06/25 02:02:49;;;;;;;4.80;2.10;;;;;;;13.57;100.00;96244.50;1030694;28;20292;-52
2021/06/25 02:03:20;;;;;;;3.85;2.13;;;;;;;13.55;100.00;96241.13;1028043;28;20109;-53
2021/06/25 02:03:51;;;;;;;5.38;2.20;;;;;;;13.58;100.00;96246.19;1027441;28;20556;-53
2021/06/25 02:04:22;;;;;;;6.00;2.33;;;;;;;13.60;100.00;96241.63;1028023;28;20043;-52
2021/06/25 02:04:52;;;;;;;3.72;2.50;;;;;;;13.59;100.00;96250.50;1024186;28;20102;-52
2021/06/25 02:05:23;;;;;;;3.53;2.20;;;;;;;13.60;100.00;96242.47;1023939;29;20027;-49
2021/06/25 02:05:54;;;;;;;5.60;2.30;;;;;;;13.58;100.00;96246.19;1024179;28;20478;-52
2021/06/25 02:06:25;;;;;;;3.30;2.20;;;;;;;13.57;100.00;96247.13;1028166;28;20040;-52
2021/06/25 02:06:55;;;;;;;3.60;2.15;;;;;;;13.58;100.00;96238.28;1028016;28;20504;-52
2021/06/25 02:07:27;;;;;;;4.93;2.53;;;;;;;13.59;100.00;96238.16;1032230;28;20042;-50
2021/06/25 02:07:57;;;;;;;3.25;2.00;;;;;;;13.61;100.00;96235.41;1031965;28;20519;-51
2021/06/25 02:08:28;;;;;;;2.72;1.80;;;;;;;13.62;100.00;96239.72;1032078;28;20010;-52
2021/06/25 02:09:01;;;;;;;3.78;1.90;;;;;;;13.65;100.00;96238.66;1032270;28;20104;-53
2021/06/25 02:09:32;;;;;;;4.80;2.03;;;;;;;13.67;100.00;96240.19;1036033;28;20064;-52
2021/06/25 02:10:07;;;;;;;4.50;2.38;;;;;;;13.64;100.00;96240.44;1035547;28;20010;-52
2021/06/25 02:10:38;;;;;;;4.28;2.00;;;;;;;13.65;100.00;96238.66;1031882;28;20381;-53
2021/06/25 02:11:10;;;;;;;3.80;2.22;;;;;;;13.64;100.00;96236.97;1036035;28;20072;-53
2021/06/25 02:11:41;;;;;;;3.63;1.90;;;;;;;13.49;100.00;96221.41;1036112;28;20018;-52
2021/06/25 02:12:12;;;;;;;3.22;2.10;;;;;;;13.63;100.00;96236.13;1032120;28;20583;-52
2021/06/25 02:12:42;;;;;;;2.90;1.95;;;;;;;13.66;100.00;96235.06;1027654;28;20025;-52
2021/06/25 02:13:13;;;;;;;3.92;2.00;;;;;;;13.64;100.00;96237.78;1028041;28;20026;-53
2021/06/25 02:13:44;;;;;;;3.55;1.90;;;;;;;13.60;100.00;96237.19;1027837;28;20034;-53
2021/06/25 02:14:15;;;;;;;3.10;2.08;;;;;;;13.60;100.00;96237.19;1032497;28;20026;-52
2021/06/25 02:14:46;;;;;;;4.55;2.00;;;;;;;13.61;100.00;96236.25;1036361;28;20038;-53
2021/06/25 02:15:17;;;;;;;3.17;2.10;;;;;;;13.59;100.00;96232.06;1032330;28;20014;-52
2021/06/25 02:15:48;;;;;;;6.57;2.22;;;;;;;13.62;100.00;96229.19;1032293;28;20526;-52
2021/06/25 02:16:19;;;;;;;5.20;2.20;;;;;;;13.63;100.00;96230.88;1028392;28;20089;-51
2021/06/25 02:16:49;;;;;;;4.75;2.10;;;;;;;13.61;100.00;96232.78;1031927;28;20085;-50
2021/06/25 02:17:21;;;;;;;3.60;2.05;;;;;;;13.57;100.00;96234.81;1031988;28;20018;-53
2021/06/25 02:17:51;;;;;;;6.45;2.17;;;;;;;13.58;100.00;96228.59;1032082;28;20015;-51
2021/06/25 02:18:22;;;;;;;4.95;2.25;;;;;;;13.58;100.00;96235.66;1032149;28;20058;-52
2021/06/25 02:18:53;;;;;;;6.00;2.25;;;;;;;13.57;100.00;96234.81;1032116;28;20019;-52
2021/06/25 02:19:24;;;;;;;3.25;2.20;;;;;;;13.55;100.00;96236.75;1035929;28;20010;-49
2021/06/25 02:19:55;;;;;;;3.25;1.90;;;;;;;13.55;100.00;96244.63;1035993;28;20100;-52
2021/06/25 02:20:25;;;;;;;4.53;2.20;;;;;;;13.55;100.00;96236.75;1032023;28;20021;-52
2021/06/25 02:20:56;;;;;;;4.82;2.10;;;;;;;13.52;100.00;96238.75;1027948;28;20532;-52
2021/06/25 02:21:27;;;;;;;3.90;2.17;;;;;;;13.55;100.00;96241.13;1027879;28;20011;-50
2021/06/25 02:21:58;;;;;;;7.15;2.38;;;;;;;13.51;100.00;96227.38;1028153;28;20019;-52
2021/06/25 02:22:29;;;;;;;4.50;2.30;;;;;;;13.55;100.00;96233.25;1028106;28;20568;-52
2021/06/25 02:23:00;;;;;;;5.07;1.70;;;;;;;13.51;100.00;96235.28;1031967;28;20025;-52
2021/06/25 02:23:31;;;;;;;3.70;2.08;;;;;;;13.55;100.00;96238.50;1031386;28;20026;-51
2021/06/25 02:24:01;;;;;;;4.65;2.00;;;;;;;13.53;100.00;96241.28;1031889;28;20010;-52
2021/06/25 02:24:32;;;;;;;4.28;2.28;;;;;;;13.54;100.00;96245.56;1031786;28;20025;-51
2021/06/25 02:25:05;;;;;;;3.25;2.00;;;;;;;13.50;100.00;96236.25;1028038;28;20058;-52
2021/06/25 02:25:35;;;;;;;5.95;2.15;;;;;;;13.53;100.00;96232.53;1031708;28;20078;-52
2021/06/25 02:26:07;;;;;;;4.63;2.15;;;;;;;13.54;100.00;96237.69;1032042;28;20026;-52
2021/06/25 02:26:37;;;;;;;4.05;2.00;;;;;;;13.54;100.00;96234.22;1031983;28;20030;-52